Terminal Aerodrome Forecast
Issued by NWS

Home | Current Version | Previous Version | Text Only | Print | Product List | Glossary On
Versions: 1 2 3 4 5 6 7 8 9 10 11 12 13 14 15 16 17 18 19
000
FTPA31 PHFO 280531
TAFHNY
TAF
PHNY 280531Z 2806/2906 VRB05KT P6SM VCSH SCT020 BKN035
     FM282000 26007KT P6SM VCSH BKN020
     FM290400 04006KT P6SM VCSH BKN025=

USA.gov is the U.S. government's official web portal to all federal, state and local government web resources and services.